TNN weather

Tainan Airport
Tainan City, Tainan City, Taiwan

Public forecast

Using degrees Celsius for public forecast. Weather courtesy of forecast.io.

METAR (pilot weather report)

Retrieved 2019/05/21 03:30 UTC (0 seconds ago):

RCNN 210330Z 26004KT 5000 BR FEW012 BKN030 OVC050 27/22 Q1009 NOSIG RMK A2981

TAF (pilot weather forecast)

Forecast is more than 12 hours old.

Retrieved 2019/05/20 00:21 UTC (1 day ago):

TAF RCNN 202300Z 2100/2124 36004KT 3200 BR FEW010 SCT040 BKN060 TX32/2106Z TN22/2120Z BECMG 2101/2102 30008KT 6000 BECMG 2103/2106 9999 BECMG 2011/2114 36004KT 7000 TEMPO 2118/2123 5000 BR